Terminal Aerodrome Forecast
Issued by NWS Albuquerque, NM

Home | Current Version | Previous Version | Text Only | Print | Product List | Glossary On
Versions: 1 2 3 4 5 6 7 8 9 10 11 12 13 14 15
000
FTUS45 KABQ 280541
TAFABQ
TAF
KABQ 280541Z 2806/2906 14006KT P6SM BKN250
     FM281000 VRB05KT P6SM BKN250
     FM281900 09010KT P6SM SCT080 SCT250
     FM282200 09014KT P6SM VCSH BKN100
     FM290200 09010KT P6SM SCT100 SCT250=

USA.gov is the U.S. government's official web portal to all federal, state and local government web resources and services.